sensor_id;sensor_type;location;lat;lon;timestamp;temperature;humidity
16158;DHT22;8184;60.256;18.694;2023-07-09T00:00:46;16.30;99.90
16158;DHT22;8184;60.256;18.694;2023-07-09T00:03:18;16.30;99.90
16158;DHT22;8184;60.256;18.694;2023-07-09T00:05:48;16.10;99.90
16158;DHT22;8184;60.256;18.694;2023-07-09T00:08:21;16.00;99.90
16158;DHT22;8184;60.256;18.694;2023-07-09T00:10:53;16.20;99.90
16158;DHT22;8184;60.256;18.694;2023-07-09T00:13:25;16.20;99.90
16158;DHT22;8184;60.256;18.694;2023-07-09T00:15:55;16.10;99.90
16158;DHT22;8184;60.256;18.694;2023-07-09T00:18:25;16.10;99.90
16158;DHT22;8184;60.256;18.694;2023-07-09T00:20:53;16.10;99.90
16158;DHT22;8184;60.256;18.694;2023-07-09T00:23:21;16.20;99.90
16158;DHT22;8184;60.256;18.694;2023-07-09T00:25:50;16.20;99.90
16158;DHT22;8184;60.256;18.694;2023-07-09T00:28:19;16.10;99.90
16158;DHT22;8184;60.256;18.694;2023-07-09T00:30:48;16.00;99.90
16158;DHT22;8184;60.256;18.694;2023-07-09T00:33:19;16.00;99.90
16158;DHT22;8184;60.256;18.694;2023-07-09T00:35:47;16.00;99.90
16158;DHT22;8184;60.256;18.694;2023-07-09T00:38:18;16.00;99.90
16158;DHT22;8184;60.256;18.694;2023-07-09T00:40:56;16.00;99.90
16158;DHT22;8184;60.256;18.694;2023-07-09T00:43:27;15.90;99.90
16158;DHT22;8184;60.256;18.694;2023-07-09T00:46:14;15.80;99.90
16158;DHT22;8184;60.256;18.694;2023-07-09T00:48:44;15.90;99.90
16158;DHT22;8184;60.256;18.694;2023-07-09T00:51:16;15.80;99.90
16158;DHT22;8184;60.256;18.694;2023-07-09T00:53:48;15.80;99.90
16158;DHT22;8184;60.256;18.694;2023-07-09T00:56:18;15.80;99.90
16158;DHT22;8184;60.256;18.694;2023-07-09T00:58:53;15.70;99.90
16158;DHT22;8184;60.256;18.694;2023-07-09T01:01:22;15.70;99.90
16158;DHT22;8184;60.256;18.694;2023-07-09T01:03:54;15.70;99.90
16158;DHT22;8184;60.256;18.694;2023-07-09T01:06:27;15.80;99.90
16158;DHT22;8184;60.256;18.694;2023-07-09T01:08:59;15.60;99.90
16158;DHT22;8184;60.256;18.694;2023-07-09T01:11:30;15.60;99.90
16158;DHT22;8184;60.256;18.694;2023-07-09T01:14:00;15.40;99.90
16158;DHT22;8184;60.256;18.694;2023-07-09T01:16:30;15.40;99.90
16158;DHT22;8184;60.256;18.694;2023-07-09T01:19:00;15.50;99.90
16158;DHT22;8184;60.256;18.694;2023-07-09T01:21:30;15.50;99.90
16158;DHT22;8184;60.256;18.694;2023-07-09T01:24:10;15.50;99.90
16158;DHT22;8184;60.256;18.694;2023-07-09T01:26:39;15.40;99.90
16158;DHT22;8184;60.256;18.694;2023-07-09T01:29:07;15.30;99.90
16158;DHT22;8184;60.256;18.694;2023-07-09T01:31:39;15.30;99.90
16158;DHT22;8184;60.256;18.694;2023-07-09T01:34:07;15.30;99.90
16158;DHT22;8184;60.256;18.694;2023-07-09T01:36:37;15.30;99.90
16158;DHT22;8184;60.256;18.694;2023-07-09T01:39:06;15.30;99.90
16158;DHT22;8184;60.256;18.694;2023-07-09T01:41:35;15.30;99.90
16158;DHT22;8184;60.256;18.694;2023-07-09T01:44:04;15.30;99.90
16158;DHT22;8184;60.256;18.694;2023-07-09T01:46:33;15.10;99.90
16158;DHT22;8184;60.256;18.694;2023-07-09T01:49:02;15.10;99.90
16158;DHT22;8184;60.256;18.694;2023-07-09T01:51:30;15.10;99.90
16158;DHT22;8184;60.256;18.694;2023-07-09T01:54:00;15.10;99.90
16158;DHT22;8184;60.256;18.694;2023-07-09T01:56:28;15.10;99.90
16158;DHT22;8184;60.256;18.694;2023-07-09T01:58:56;15.10;99.90
16158;DHT22;8184;60.256;18.694;2023-07-09T02:01:28;15.10;99.90
16158;DHT22;8184;60.256;18.694;2023-07-09T02:03:57;15.10;99.90
16158;DHT22;8184;60.256;18.694;2023-07-09T02:06:25;15.00;99.90
16158;DHT22;8184;60.256;18.694;2023-07-09T02:09:00;15.00;99.90
16158;DHT22;8184;60.256;18.694;2023-07-09T02:11:28;15.00;99.90
16158;DHT22;8184;60.256;18.694;2023-07-09T02:13:56;15.00;99.90
16158;DHT22;8184;60.256;18.694;2023-07-09T02:16:25;14.90;99.90
16158;DHT22;8184;60.256;18.694;2023-07-09T02:18:54;14.90;99.90
16158;DHT22;8184;60.256;18.694;2023-07-09T02:21:23;14.90;99.90
16158;DHT22;8184;60.256;18.694;2023-07-09T02:23:51;14.90;99.90
16158;DHT22;8184;60.256;18.694;2023-07-09T02:26:21;14.80;99.90
16158;DHT22;8184;60.256;18.694;2023-07-09T02:28:50;14.80;99.90
16158;DHT22;8184;60.256;18.694;2023-07-09T02:31:18;14.80;99.90
16158;DHT22;8184;60.256;18.694;2023-07-09T02:33:47;14.80;99.90
16158;DHT22;8184;60.256;18.694;2023-07-09T02:36:17;14.80;99.90
16158;DHT22;8184;60.256;18.694;2023-07-09T02:38:45;14.80;99.90
16158;DHT22;8184;60.256;18.694;2023-07-09T02:41:14;14.80;99.90
16158;DHT22;8184;60.256;18.694;2023-07-09T02:43:46;14.80;99.90
16158;DHT22;8184;60.256;18.694;2023-07-09T02:46:14;15.00;99.90
16158;DHT22;8184;60.256;18.694;2023-07-09T02:48:42;15.10;99.90
16158;DHT22;8184;60.256;18.694;2023-07-09T02:51:11;15.10;99.90
16158;DHT22;8184;60.256;18.694;2023-07-09T02:53:39;15.30;99.90
16158;DHT22;8184;60.256;18.694;2023-07-09T02:56:07;15.40;99.90
16158;DHT22;8184;60.256;18.694;2023-07-09T02:58:35;15.40;99.90
16158;DHT22;8184;60.256;18.694;2023-07-09T03:01:05;15.90;99.90
16158;DHT22;8184;60.256;18.694;2023-07-09T03:03:33;16.50;99.90
16158;DHT22;8184;60.256;18.694;2023-07-09T03:06:02;16.90;99.90
16158;DHT22;8184;60.256;18.694;2023-07-09T03:08:30;16.90;99.90
16158;DHT22;8184;60.256;18.694;2023-07-09T03:10:59;16.70;99.90
16158;DHT22;8184;60.256;18.694;2023-07-09T03:13:27;17.20;99.90
16158;DHT22;8184;60.256;18.694;2023-07-09T03:15:56;17.60;99.90
16158;DHT22;8184;60.256;18.694;2023-07-09T03:18:30;18.20;99.90
16158;DHT22;8184;60.256;18.694;2023-07-09T03:20:58;18.70;99.90
16158;DHT22;8184;60.256;18.694;2023-07-09T03:23:27;18.80;99.90
16158;DHT22;8184;60.256;18.694;2023-07-09T03:25:58;18.90;99.90
16158;DHT22;8184;60.256;18.694;2023-07-09T03:28:28;18.60;99.90
16158;DHT22;8184;60.256;18.694;2023-07-09T03:30:57;18.60;99.90
16158;DHT22;8184;60.256;18.694;2023-07-09T03:33:25;19.10;99.90
16158;DHT22;8184;60.256;18.694;2023-07-09T03:35:55;19.40;99.90
16158;DHT22;8184;60.256;18.694;2023-07-09T03:38:23;19.70;99.90
16158;DHT22;8184;60.256;18.694;2023-07-09T03:40:52;20.00;99.90
16158;DHT22;8184;60.256;18.694;2023-07-09T03:43:20;19.50;99.90
16158;DHT22;8184;60.256;18.694;2023-07-09T03:45:51;19.70;99.90
16158;DHT22;8184;60.256;18.694;2023-07-09T03:48:20;19.80;99.90
16158;DHT22;8184;60.256;18.694;2023-07-09T03:50:49;20.00;99.90
16158;DHT22;8184;60.256;18.694;2023-07-09T03:53:18;19.80;99.90
16158;DHT22;8184;60.256;18.694;2023-07-09T03:55:50;19.50;99.90
16158;DHT22;8184;60.256;18.694;2023-07-09T03:58:19;20.10;99.90
16158;DHT22;8184;60.256;18.694;2023-07-09T04:00:47;20.30;99.90
16158;DHT22;8184;60.256;18.694;2023-07-09T04:03:17;20.30;99.90
16158;DHT22;8184;60.256;18.694;2023-07-09T04:05:45;20.30;99.90
16158;DHT22;8184;60.256;18.694;2023-07-09T04:08:13;20.40;99.90
16158;DHT22;8184;60.256;18.694;2023-07-09T04:10:43;21.10;99.90
16158;DHT22;8184;60.256;18.694;2023-07-09T04:13:12;20.50;99.90
16158;DHT22;8184;60.256;18.694;2023-07-09T04:15:40;20.00;99.90
16158;DHT22;8184;60.256;18.694;2023-07-09T04:18:09;19.20;99.90
16158;DHT22;8184;60.256;18.694;2023-07-09T04:20:37;18.80;99.90
16158;DHT22;8184;60.256;18.694;2023-07-09T04:23:08;18.90;99.90
16158;DHT22;8184;60.256;18.694;2023-07-09T04:25:37;19.50;99.90
16158;DHT22;8184;60.256;18.694;2023-07-09T04:28:07;19.20;99.90
16158;DHT22;8184;60.256;18.694;2023-07-09T04:30:36;19.00;99.90
16158;DHT22;8184;60.256;18.694;2023-07-09T04:33:04;18.90;99.90
16158;DHT22;8184;60.256;18.694;2023-07-09T04:35:33;19.90;99.90
16158;DHT22;8184;60.256;18.694;2023-07-09T04:38:04;20.50;99.90
16158;DHT22;8184;60.256;18.694;2023-07-09T04:40:32;20.50;99.90
16158;DHT22;8184;60.256;18.694;2023-07-09T04:43:00;20.90;99.90
16158;DHT22;8184;60.256;18.694;2023-07-09T04:45:30;20.50;99.90
16158;DHT22;8184;60.256;18.694;2023-07-09T04:47:58;20.40;99.90
16158;DHT22;8184;60.256;18.694;2023-07-09T04:50:27;20.00;99.90
16158;DHT22;8184;60.256;18.694;2023-07-09T04:52:55;19.60;99.90
16158;DHT22;8184;60.256;18.694;2023-07-09T04:55:23;19.70;99.90
16158;DHT22;8184;60.256;18.694;2023-07-09T04:57:53;19.80;99.90
16158;DHT22;8184;60.256;18.694;2023-07-09T05:00:25;20.00;99.90
16158;DHT22;8184;60.256;18.694;2023-07-09T05:02:57;20.10;99.90
16158;DHT22;8184;60.256;18.694;2023-07-09T05:05:27;19.40;99.90
16158;DHT22;8184;60.256;18.694;2023-07-09T05:07:55;19.10;99.90
16158;DHT22;8184;60.256;18.694;2023-07-09T05:10:23;19.30;99.90
16158;DHT22;8184;60.256;18.694;2023-07-09T05:12:52;19.30;99.90
16158;DHT22;8184;60.256;18.694;2023-07-09T05:15:24;19.30;99.90
16158;DHT22;8184;60.256;18.694;2023-07-09T05:17:53;19.30;99.90
16158;DHT22;8184;60.256;18.694;2023-07-09T05:20:23;19.00;99.90
16158;DHT22;8184;60.256;18.694;2023-07-09T05:22:51;18.80;99.90
16158;DHT22;8184;60.256;18.694;2023-07-09T05:25:20;18.70;99.90
16158;DHT22;8184;60.256;18.694;2023-07-09T05:27:48;19.10;99.90
16158;DHT22;8184;60.256;18.694;2023-07-09T05:30:16;19.20;99.90
16158;DHT22;8184;60.256;18.694;2023-07-09T05:32:45;19.90;99.90
16158;DHT22;8184;60.256;18.694;2023-07-09T05:35:15;19.30;99.90
16158;DHT22;8184;60.256;18.694;2023-07-09T05:37:44;19.00;99.90
16158;DHT22;8184;60.256;18.694;2023-07-09T05:40:13;19.70;99.90
16158;DHT22;8184;60.256;18.694;2023-07-09T05:42:42;19.80;99.90
16158;DHT22;8184;60.256;18.694;2023-07-09T05:45:10;19.30;99.90
16158;DHT22;8184;60.256;18.694;2023-07-09T05:47:39;19.10;99.90
16158;DHT22;8184;60.256;18.694;2023-07-09T05:50:07;19.20;99.90
16158;DHT22;8184;60.256;18.694;2023-07-09T05:52:35;19.10;99.90
16158;DHT22;8184;60.256;18.694;2023-07-09T05:55:11;19.20;99.90
16158;DHT22;8184;60.256;18.694;2023-07-09T05:57:43;19.10;99.90
16158;DHT22;8184;60.256;18.694;2023-07-09T06:00:11;19.90;99.90
16158;DHT22;8184;60.256;18.694;2023-07-09T06:02:40;20.20;99.90
16158;DHT22;8184;60.256;18.694;2023-07-09T06:05:12;20.50;99.90
16158;DHT22;8184;60.256;18.694;2023-07-09T06:07:40;20.70;99.90
16158;DHT22;8184;60.256;18.694;2023-07-09T06:10:08;20.70;99.90
16158;DHT22;8184;60.256;18.694;2023-07-09T06:12:38;20.80;99.90
16158;DHT22;8184;60.256;18.694;2023-07-09T06:15:07;20.50;99.90
16158;DHT22;8184;60.256;18.694;2023-07-09T06:17:36;19.80;99.90
16158;DHT22;8184;60.256;18.694;2023-07-09T06:20:04;20.40;99.90
16158;DHT22;8184;60.256;18.694;2023-07-09T06:22:33;20.60;99.90
16158;DHT22;8184;60.256;18.694;2023-07-09T06:25:04;20.60;99.90
16158;DHT22;8184;60.256;18.694;2023-07-09T06:27:32;20.30;99.90
16158;DHT22;8184;60.256;18.694;2023-07-09T06:30:02;20.50;99.90
16158;DHT22;8184;60.256;18.694;2023-07-09T06:32:31;20.00;99.90
16158;DHT22;8184;60.256;18.694;2023-07-09T06:35:02;19.30;99.90
16158;DHT22;8184;60.256;18.694;2023-07-09T06:37:44;19.50;99.90
16158;DHT22;8184;60.256;18.694;2023-07-09T06:40:15;20.10;99.90
16158;DHT22;8184;60.256;18.694;2023-07-09T06:42:43;20.20;99.90
16158;DHT22;8184;60.256;18.694;2023-07-09T06:45:17;20.10;99.90
16158;DHT22;8184;60.256;18.694;2023-07-09T06:47:53;20.00;99.90
16158;DHT22;8184;60.256;18.694;2023-07-09T06:50:34;19.70;99.90
16158;DHT22;8184;60.256;18.694;2023-07-09T06:53:02;19.70;99.90
16158;DHT22;8184;60.256;18.694;2023-07-09T06:55:30;19.80;99.90
16158;DHT22;8184;60.256;18.694;2023-07-09T06:58:02;19.70;99.90
16158;DHT22;8184;60.256;18.694;2023-07-09T07:00:32;20.00;99.90
16158;DHT22;8184;60.256;18.694;2023-07-09T07:03:01;20.30;99.90
16158;DHT22;8184;60.256;18.694;2023-07-09T07:05:29;20.40;99.90
16158;DHT22;8184;60.256;18.694;2023-07-09T07:07:58;19.80;99.90
16158;DHT22;8184;60.256;18.694;2023-07-09T07:10:26;19.90;99.90
16158;DHT22;8184;60.256;18.694;2023-07-09T07:12:55;20.10;99.90
16158;DHT22;8184;60.256;18.694;2023-07-09T07:15:23;19.80;99.90
16158;DHT22;8184;60.256;18.694;2023-07-09T07:17:53;19.70;99.90
16158;DHT22;8184;60.256;18.694;2023-07-09T07:20:21;19.60;99.90
16158;DHT22;8184;60.256;18.694;2023-07-09T07:22:52;20.00;99.90
16158;DHT22;8184;60.256;18.694;2023-07-09T07:25:24;20.00;99.90
16158;DHT22;8184;60.256;18.694;2023-07-09T07:27:53;20.70;99.90
16158;DHT22;8184;60.256;18.694;2023-07-09T07:30:21;20.60;99.90
16158;DHT22;8184;60.256;18.694;2023-07-09T07:32:57;19.60;99.90
16158;DHT22;8184;60.256;18.694;2023-07-09T07:35:25;19.50;99.90
16158;DHT22;8184;60.256;18.694;2023-07-09T07:37:53;20.00;99.90
16158;DHT22;8184;60.256;18.694;2023-07-09T07:40:22;20.10;99.90
16158;DHT22;8184;60.256;18.694;2023-07-09T07:42:53;19.90;99.90
16158;DHT22;8184;60.256;18.694;2023-07-09T07:45:24;20.00;99.90
16158;DHT22;8184;60.256;18.694;2023-07-09T07:47:57;19.60;99.90
16158;DHT22;8184;60.256;18.694;2023-07-09T07:50:27;20.10;99.90
16158;DHT22;8184;60.256;18.694;2023-07-09T07:52:55;19.40;99.90
16158;DHT22;8184;60.256;18.694;2023-07-09T07:55:23;19.80;99.90
16158;DHT22;8184;60.256;18.694;2023-07-09T07:57:51;20.00;99.90
16158;DHT22;8184;60.256;18.694;2023-07-09T08:00:26;20.20;99.90
16158;DHT22;8184;60.256;18.694;2023-07-09T08:02:55;19.80;99.90
16158;DHT22;8184;60.256;18.694;2023-07-09T08:05:23;20.00;99.90
16158;DHT22;8184;60.256;18.694;2023-07-09T08:07:53;19.60;99.90
16158;DHT22;8184;60.256;18.694;2023-07-09T08:10:22;19.70;99.90
16158;DHT22;8184;60.256;18.694;2023-07-09T08:12:50;20.50;99.90
16158;DHT22;8184;60.256;18.694;2023-07-09T08:15:24;20.90;99.90
16158;DHT22;8184;60.256;18.694;2023-07-09T08:17:55;20.30;99.90
16158;DHT22;8184;60.256;18.694;2023-07-09T08:20:27;20.80;99.90
16158;DHT22;8184;60.256;18.694;2023-07-09T08:22:57;20.90;99.90
16158;DHT22;8184;60.256;18.694;2023-07-09T08:25:31;20.00;99.90
16158;DHT22;8184;60.256;18.694;2023-07-09T08:27:59;19.50;99.90
16158;DHT22;8184;60.256;18.694;2023-07-09T08:30:30;19.50;99.90
16158;DHT22;8184;60.256;18.694;2023-07-09T08:32:58;20.00;99.90
16158;DHT22;8184;60.256;18.694;2023-07-09T08:35:29;19.50;99.90
16158;DHT22;8184;60.256;18.694;2023-07-09T08:38:04;20.00;99.90
16158;DHT22;8184;60.256;18.694;2023-07-09T08:40:32;19.40;99.90
16158;DHT22;8184;60.256;18.694;2023-07-09T08:43:02;19.70;99.90
16158;DHT22;8184;60.256;18.694;2023-07-09T08:45:33;19.80;99.90
16158;DHT22;8184;60.256;18.694;2023-07-09T08:48:05;19.70;99.90
16158;DHT22;8184;60.256;18.694;2023-07-09T08:50:36;19.90;99.90
16158;DHT22;8184;60.256;18.694;2023-07-09T08:53:07;20.10;99.90
16158;DHT22;8184;60.256;18.694;2023-07-09T08:55:38;19.40;99.90
16158;DHT22;8184;60.256;18.694;2023-07-09T08:58:12;19.50;99.90
16158;DHT22;8184;60.256;18.694;2023-07-09T09:00:45;19.70;99.90
16158;DHT22;8184;60.256;18.694;2023-07-09T09:03:23;19.30;99.90
16158;DHT22;8184;60.256;18.694;2023-07-09T09:05:54;20.00;99.90
16158;DHT22;8184;60.256;18.694;2023-07-09T09:08:28;20.50;99.90
16158;DHT22;8184;60.256;18.694;2023-07-09T09:11:00;20.10;99.90
16158;DHT22;8184;60.256;18.694;2023-07-09T09:13:40;19.90;99.90
16158;DHT22;8184;60.256;18.694;2023-07-09T09:16:14;19.30;99.90
16158;DHT22;8184;60.256;18.694;2023-07-09T09:18:45;18.70;99.90
16158;DHT22;8184;60.256;18.694;2023-07-09T09:21:16;18.70;99.90
16158;DHT22;8184;60.256;18.694;2023-07-09T09:23:49;19.30;99.90
16158;DHT22;8184;60.256;18.694;2023-07-09T09:26:23;19.70;99.90
16158;DHT22;8184;60.256;18.694;2023-07-09T09:28:52;19.90;99.90
16158;DHT22;8184;60.256;18.694;2023-07-09T09:31:20;19.10;99.90
16158;DHT22;8184;60.256;18.694;2023-07-09T09:33:49;18.80;99.90
16158;DHT22;8184;60.256;18.694;2023-07-09T09:36:19;19.40;99.90
16158;DHT22;8184;60.256;18.694;2023-07-09T09:38:54;19.20;99.90
16158;DHT22;8184;60.256;18.694;2023-07-09T09:41:23;19.00;99.90
16158;DHT22;8184;60.256;18.694;2023-07-09T09:43:53;19.40;99.90
16158;DHT22;8184;60.256;18.694;2023-07-09T09:46:23;19.30;99.90
16158;DHT22;8184;60.256;18.694;2023-07-09T09:48:55;19.30;99.90
16158;DHT22;8184;60.256;18.694;2023-07-09T09:51:24;19.20;99.90
16158;DHT22;8184;60.256;18.694;2023-07-09T09:53:57;19.00;99.90
16158;DHT22;8184;60.256;18.694;2023-07-09T09:56:29;19.10;99.90
16158;DHT22;8184;60.256;18.694;2023-07-09T09:59:00;19.00;99.90
16158;DHT22;8184;60.256;18.694;2023-07-09T10:01:33;19.00;99.90
16158;DHT22;8184;60.256;18.694;2023-07-09T10:04:04;19.00;99.90
16158;DHT22;8184;60.256;18.694;2023-07-09T10:06:36;19.90;99.90
16158;DHT22;8184;60.256;18.694;2023-07-09T10:09:08;20.50;99.90
16158;DHT22;8184;60.256;18.694;2023-07-09T10:11:44;19.30;99.90
16158;DHT22;8184;60.256;18.694;2023-07-09T10:14:19;18.90;99.90
16158;DHT22;8184;60.256;18.694;2023-07-09T10:16:51;19.10;99.90
16158;DHT22;8184;60.256;18.694;2023-07-09T10:19:24;20.20;99.90
16158;DHT22;8184;60.256;18.694;2023-07-09T10:21:54;20.40;99.90
16158;DHT22;8184;60.256;18.694;2023-07-09T10:24:29;20.00;99.90
16158;DHT22;8184;60.256;18.694;2023-07-09T10:27:00;19.70;99.90
16158;DHT22;8184;60.256;18.694;2023-07-09T10:29:38;20.30;99.90
16158;DHT22;8184;60.256;18.694;2023-07-09T10:32:11;19.60;99.90
16158;DHT22;8184;60.256;18.694;2023-07-09T10:34:44;19.30;99.90
16158;DHT22;8184;60.256;18.694;2023-07-09T10:37:22;19.40;99.90
16158;DHT22;8184;60.256;18.694;2023-07-09T10:39:55;19.50;99.90
16158;DHT22;8184;60.256;18.694;2023-07-09T10:42:24;19.90;99.90
16158;DHT22;8184;60.256;18.694;2023-07-09T10:44:55;19.30;99.90
16158;DHT22;8184;60.256;18.694;2023-07-09T10:47:27;20.00;99.90
16158;DHT22;8184;60.256;18.694;2023-07-09T10:50:00;20.50;99.90
16158;DHT22;8184;60.256;18.694;2023-07-09T10:52:32;21.20;99.90
16158;DHT22;8184;60.256;18.694;2023-07-09T10:55:04;20.80;99.90
16158;DHT22;8184;60.256;18.694;2023-07-09T10:57:40;21.50;99.90
16158;DHT22;8184;60.256;18.694;2023-07-09T11:00:15;21.30;99.90
16158;DHT22;8184;60.256;18.694;2023-07-09T11:02:47;21.40;99.90
16158;DHT22;8184;60.256;18.694;2023-07-09T11:05:19;21.60;99.90
16158;DHT22;8184;60.256;18.694;2023-07-09T11:07:52;21.50;99.90
16158;DHT22;8184;60.256;18.694;2023-07-09T11:10:34;20.90;99.90
16158;DHT22;8184;60.256;18.694;2023-07-09T11:13:04;21.40;99.90
16158;DHT22;8184;60.256;18.694;2023-07-09T11:15:37;20.10;99.90
16158;DHT22;8184;60.256;18.694;2023-07-09T11:18:11;19.90;99.90
16158;DHT22;8184;60.256;18.694;2023-07-09T11:20:55;19.40;99.90
16158;DHT22;8184;60.256;18.694;2023-07-09T11:23:36;19.70;99.90
16158;DHT22;8184;60.256;18.694;2023-07-09T11:26:23;20.30;99.90
16158;DHT22;8184;60.256;18.694;2023-07-09T11:28:54;20.50;99.90
16158;DHT22;8184;60.256;18.694;2023-07-09T11:31:31;20.30;99.90
16158;DHT22;8184;60.256;18.694;2023-07-09T11:34:07;19.90;99.90
16158;DHT22;8184;60.256;18.694;2023-07-09T11:36:46;19.50;99.90
16158;DHT22;8184;60.256;18.694;2023-07-09T11:39:23;20.10;99.90
16158;DHT22;8184;60.256;18.694;2023-07-09T11:41:57;20.70;99.90
16158;DHT22;8184;60.256;18.694;2023-07-09T11:44:28;20.80;99.90
16158;DHT22;8184;60.256;18.694;2023-07-09T11:49:51;20.00;99.90
16158;DHT22;8184;60.256;18.694;2023-07-09T11:52:20;19.20;99.90
16158;DHT22;8184;60.256;18.694;2023-07-09T11:54:51;19.70;99.90
16158;DHT22;8184;60.256;18.694;2023-07-09T11:57:21;19.60;99.90
16158;DHT22;8184;60.256;18.694;2023-07-09T11:59:50;20.40;99.90
16158;DHT22;8184;60.256;18.694;2023-07-09T12:02:20;20.70;99.90
16158;DHT22;8184;60.256;18.694;2023-07-09T12:04:55;20.00;99.90
16158;DHT22;8184;60.256;18.694;2023-07-09T12:07:24;20.00;99.90
16158;DHT22;8184;60.256;18.694;2023-07-09T12:09:55;20.70;99.90
16158;DHT22;8184;60.256;18.694;2023-07-09T12:12:26;20.00;99.90
16158;DHT22;8184;60.256;18.694;2023-07-09T12:14:55;21.00;99.90
16158;DHT22;8184;60.256;18.694;2023-07-09T12:17:25;21.40;99.90
16158;DHT22;8184;60.256;18.694;2023-07-09T12:19:57;21.30;99.90
16158;DHT22;8184;60.256;18.694;2023-07-09T12:22:25;20.90;99.90
16158;DHT22;8184;60.256;18.694;2023-07-09T12:24:54;20.90;99.90
16158;DHT22;8184;60.256;18.694;2023-07-09T12:27:24;20.60;99.90
16158;DHT22;8184;60.256;18.694;2023-07-09T12:29:56;20.80;99.90
16158;DHT22;8184;60.256;18.694;2023-07-09T12:32:24;20.40;99.90
16158;DHT22;8184;60.256;18.694;2023-07-09T12:34:56;19.70;99.90
16158;DHT22;8184;60.256;18.694;2023-07-09T12:37:25;19.80;99.90
16158;DHT22;8184;60.256;18.694;2023-07-09T12:39:55;19.30;99.90
16158;DHT22;8184;60.256;18.694;2023-07-09T12:42:24;19.70;99.90
16158;DHT22;8184;60.256;18.694;2023-07-09T12:44:58;19.40;99.90
16158;DHT22;8184;60.256;18.694;2023-07-09T12:47:26;19.80;99.90
16158;DHT22;8184;60.256;18.694;2023-07-09T12:50:00;19.70;99.90
16158;DHT22;8184;60.256;18.694;2023-07-09T12:52:29;20.40;99.90
16158;DHT22;8184;60.256;18.694;2023-07-09T12:54:57;20.20;99.90
16158;DHT22;8184;60.256;18.694;2023-07-09T12:57:29;20.30;99.90
16158;DHT22;8184;60.256;18.694;2023-07-09T12:59:59;19.70;99.90
16158;DHT22;8184;60.256;18.694;2023-07-09T13:02:28;19.80;99.90
16158;DHT22;8184;60.256;18.694;2023-07-09T13:04:59;19.60;99.90
16158;DHT22;8184;60.256;18.694;2023-07-09T13:07:31;19.90;99.90
16158;DHT22;8184;60.256;18.694;2023-07-09T13:10:07;19.70;99.90
16158;DHT22;8184;60.256;18.694;2023-07-09T13:12:44;19.40;99.90
16158;DHT22;8184;60.256;18.694;2023-07-09T13:15:27;19.80;99.90
16158;DHT22;8184;60.256;18.694;2023-07-09T13:17:57;20.80;99.90
16158;DHT22;8184;60.256;18.694;2023-07-09T13:20:26;20.50;99.90
16158;DHT22;8184;60.256;18.694;2023-07-09T13:22:54;21.10;99.90
16158;DHT22;8184;60.256;18.694;2023-07-09T13:25:23;20.50;99.90
16158;DHT22;8184;60.256;18.694;2023-07-09T13:28:14;20.30;99.90
16158;DHT22;8184;60.256;18.694;2023-07-09T13:30:48;20.40;99.90
16158;DHT22;8184;60.256;18.694;2023-07-09T13:33:18;20.90;99.90
16158;DHT22;8184;60.256;18.694;2023-07-09T13:35:46;20.30;99.90
16158;DHT22;8184;60.256;18.694;2023-07-09T13:38:15;19.80;99.90
16158;DHT22;8184;60.256;18.694;2023-07-09T13:40:47;19.70;99.90
16158;DHT22;8184;60.256;18.694;2023-07-09T13:43:18;20.50;99.90
16158;DHT22;8184;60.256;18.694;2023-07-09T13:45:48;20.50;99.90
16158;DHT22;8184;60.256;18.694;2023-07-09T13:48:17;20.90;99.90
16158;DHT22;8184;60.256;18.694;2023-07-09T13:50:50;21.40;99.90
16158;DHT22;8184;60.256;18.694;2023-07-09T13:53:20;21.40;99.90
16158;DHT22;8184;60.256;18.694;2023-07-09T13:55:51;20.60;99.90
16158;DHT22;8184;60.256;18.694;2023-07-09T13:58:20;20.10;99.90
16158;DHT22;8184;60.256;18.694;2023-07-09T14:00:54;21.20;99.90
16158;DHT22;8184;60.256;18.694;2023-07-09T14:03:26;21.60;99.90
16158;DHT22;8184;60.256;18.694;2023-07-09T14:05:55;20.70;99.90
16158;DHT22;8184;60.256;18.694;2023-07-09T14:08:23;20.40;99.90
16158;DHT22;8184;60.256;18.694;2023-07-09T14:10:55;19.80;99.90
16158;DHT22;8184;60.256;18.694;2023-07-09T14:13:23;20.60;99.90
16158;DHT22;8184;60.256;18.694;2023-07-09T14:15:54;21.10;99.90
16158;DHT22;8184;60.256;18.694;2023-07-09T14:18:22;20.70;99.90
16158;DHT22;8184;60.256;18.694;2023-07-09T14:20:51;20.60;99.90
16158;DHT22;8184;60.256;18.694;2023-07-09T14:23:20;20.20;99.90
16158;DHT22;8184;60.256;18.694;2023-07-09T14:25:48;21.10;99.90
16158;DHT22;8184;60.256;18.694;2023-07-09T14:28:17;21.70;99.90
16158;DHT22;8184;60.256;18.694;2023-07-09T14:30:46;20.10;99.90
16158;DHT22;8184;60.256;18.694;2023-07-09T14:33:18;19.90;99.90
16158;DHT22;8184;60.256;18.694;2023-07-09T14:35:46;20.00;99.90
16158;DHT22;8184;60.256;18.694;2023-07-09T14:38:19;19.60;99.90
16158;DHT22;8184;60.256;18.694;2023-07-09T14:40:47;20.00;99.90
16158;DHT22;8184;60.256;18.694;2023-07-09T14:43:16;20.30;99.90
16158;DHT22;8184;60.256;18.694;2023-07-09T14:45:48;19.80;99.90
16158;DHT22;8184;60.256;18.694;2023-07-09T14:48:20;19.80;99.90
16158;DHT22;8184;60.256;18.694;2023-07-09T14:50:49;19.70;99.90
16158;DHT22;8184;60.256;18.694;2023-07-09T14:53:20;20.10;99.90
16158;DHT22;8184;60.256;18.694;2023-07-09T14:55:49;19.60;99.90
16158;DHT22;8184;60.256;18.694;2023-07-09T14:58:18;19.50;99.90
16158;DHT22;8184;60.256;18.694;2023-07-09T15:00:46;19.60;99.90
16158;DHT22;8184;60.256;18.694;2023-07-09T15:03:18;19.70;99.90
16158;DHT22;8184;60.256;18.694;2023-07-09T15:05:48;19.70;99.90
16158;DHT22;8184;60.256;18.694;2023-07-09T15:08:17;20.60;99.90
16158;DHT22;8184;60.256;18.694;2023-07-09T15:10:46;21.00;99.90
16158;DHT22;8184;60.256;18.694;2023-07-09T15:13:16;20.90;99.90
16158;DHT22;8184;60.256;18.694;2023-07-09T15:15:45;20.60;99.90
16158;DHT22;8184;60.256;18.694;2023-07-09T15:18:14;19.60;99.90
16158;DHT22;8184;60.256;18.694;2023-07-09T15:20:46;19.90;99.90
16158;DHT22;8184;60.256;18.694;2023-07-09T15:23:17;20.50;99.90
16158;DHT22;8184;60.256;18.694;2023-07-09T15:25:45;20.50;99.90
16158;DHT22;8184;60.256;18.694;2023-07-09T15:28:13;20.40;99.90
16158;DHT22;8184;60.256;18.694;2023-07-09T15:30:42;21.60;99.90
16158;DHT22;8184;60.256;18.694;2023-07-09T15:33:17;21.80;99.90
16158;DHT22;8184;60.256;18.694;2023-07-09T15:35:46;21.60;99.90
16158;DHT22;8184;60.256;18.694;2023-07-09T15:38:27;20.40;99.90
16158;DHT22;8184;60.256;18.694;2023-07-09T15:40:55;20.50;99.90
16158;DHT22;8184;60.256;18.694;2023-07-09T15:43:27;20.50;99.90
16158;DHT22;8184;60.256;18.694;2023-07-09T15:45:56;20.00;99.90
16158;DHT22;8184;60.256;18.694;2023-07-09T15:48:26;19.90;99.90
16158;DHT22;8184;60.256;18.694;2023-07-09T15:50:55;20.80;99.90
16158;DHT22;8184;60.256;18.694;2023-07-09T15:53:25;20.50;99.90